sensor_id;sensor_type;location;lat;lon;timestamp;pressure;altitude;pressure_sealevel;temperature;humidity
58223;BME280;44020;50.890;15.796;2023-04-15T00:19:40;96267.73;;;7.79;100.00
58223;BME280;44020;50.890;15.796;2023-04-15T00:22:22;96260.56;;;7.80;100.00
58223;BME280;44020;50.890;15.796;2023-04-15T00:28:09;96257.68;;;7.81;100.00
58223;BME280;44020;50.890;15.796;2023-04-15T00:38:01;96259.37;;;7.84;100.00
58223;BME280;44020;50.890;15.796;2023-04-15T00:40:50;96251.66;;;7.85;100.00
58223;BME280;44020;50.890;15.796;2023-04-15T00:43:29;96250.00;;;7.86;100.00
58223;BME280;44020;50.890;15.796;2023-04-15T00:46:37;96250.33;;;7.86;100.00
58223;BME280;44020;50.890;15.796;2023-04-15T00:49:03;96248.12;;;7.87;100.00
58223;BME280;44020;50.890;15.796;2023-04-15T00:51:45;96245.65;;;7.87;100.00
58223;BME280;44020;50.890;15.796;2023-04-15T00:54:48;96247.77;;;7.91;100.00
58223;BME280;44020;50.890;15.796;2023-04-15T00:57:35;96247.23;;;7.89;100.00
58223;BME280;44020;50.890;15.796;2023-04-15T01:00:54;96248.63;;;7.90;100.00
58223;BME280;44020;50.890;15.796;2023-04-15T01:03:34;96249.39;;;7.89;100.00
58223;BME280;44020;50.890;15.796;2023-04-15T01:06:02;96252.23;;;7.89;100.00
58223;BME280;44020;50.890;15.796;2023-04-15T01:12:19;96248.98;;;7.90;100.00
58223;BME280;44020;50.890;15.796;2023-04-15T01:15:07;96251.67;;;7.89;100.00
58223;BME280;44020;50.890;15.796;2023-04-15T01:17:56;96254.64;;;7.90;100.00
58223;BME280;44020;50.890;15.796;2023-04-15T01:20:31;96249.05;;;7.89;100.00
58223;BME280;44020;50.890;15.796;2023-04-15T01:24:04;96248.13;;;7.89;100.00
58223;BME280;44020;50.890;15.796;2023-04-15T01:26:15;96250.75;;;7.90;100.00
58223;BME280;44020;50.890;15.796;2023-04-15T01:28:43;96244.94;;;7.89;100.00
58223;BME280;44020;50.890;15.796;2023-04-15T01:39:15;96236.80;;;7.87;100.00
58223;BME280;44020;50.890;15.796;2023-04-15T01:48:26;96231.11;;;7.87;100.00
58223;BME280;44020;50.890;15.796;2023-04-15T01:55:24;96231.59;;;7.84;100.00
58223;BME280;44020;50.890;15.796;2023-04-15T02:04:11;96232.96;;;7.85;100.00
58223;BME280;44020;50.890;15.796;2023-04-15T02:08:08;96237.73;;;7.85;100.00
58223;BME280;44020;50.890;15.796;2023-04-15T02:17:10;96251.44;;;7.88;100.00
58223;BME280;44020;50.890;15.796;2023-04-15T02:27:16;96252.20;;;7.85;100.00
58223;BME280;44020;50.890;15.796;2023-04-15T02:43:10;96253.52;;;7.86;100.00
58223;BME280;44020;50.890;15.796;2023-04-15T02:46:04;96254.65;;;7.85;100.00
58223;BME280;44020;50.890;15.796;2023-04-15T02:49:04;96260.49;;;7.85;100.00
58223;BME280;44020;50.890;15.796;2023-04-15T03:06:20;96275.41;;;7.76;100.00
58223;BME280;44020;50.890;15.796;2023-04-15T03:09:28;96272.34;;;7.68;100.00
58223;BME280;44020;50.890;15.796;2023-04-15T03:16:04;96254.95;;;7.71;100.00
58223;BME280;44020;50.890;15.796;2023-04-15T03:28:32;96252.73;;;7.76;100.00
58223;BME280;44020;50.890;15.796;2023-04-15T03:31:05;96257.05;;;7.78;100.00
58223;BME280;44020;50.890;15.796;2023-04-15T03:40:59;96261.13;;;7.78;100.00
58223;BME280;44020;50.890;15.796;2023-04-15T03:43:51;96265.05;;;7.77;100.00
58223;BME280;44020;50.890;15.796;2023-04-15T03:50:29;96277.33;;;7.76;100.00
58223;BME280;44020;50.890;15.796;2023-04-15T04:03:37;96263.76;;;7.69;100.00
58223;BME280;44020;50.890;15.796;2023-04-15T04:10:14;96267.84;;;7.64;100.00
58223;BME280;44020;50.890;15.796;2023-04-15T04:13:11;96274.96;;;7.64;100.00
58223;BME280;44020;50.890;15.796;2023-04-15T04:19:44;96280.32;;;7.63;100.00
58223;BME280;44020;50.890;15.796;2023-04-15T04:29:08;96300.77;;;7.60;100.00
58223;BME280;44020;50.890;15.796;2023-04-15T04:37:07;96316.20;;;7.59;100.00
58223;BME280;44020;50.890;15.796;2023-04-15T04:39:47;96316.64;;;7.60;100.00
58223;BME280;44020;50.890;15.796;2023-04-15T04:42:16;96320.47;;;7.61;100.00
58223;BME280;44020;50.890;15.796;2023-04-15T04:44:42;96321.45;;;7.62;100.00
58223;BME280;44020;50.890;15.796;2023-04-15T04:47:20;96322.83;;;7.62;100.00
58223;BME280;44020;50.890;15.796;2023-04-15T04:50:10;96324.50;;;7.63;100.00
58223;BME280;44020;50.890;15.796;2023-04-15T04:52:38;96323.20;;;7.64;100.00
58223;BME280;44020;50.890;15.796;2023-04-15T04:55:18;96320.79;;;7.63;100.00
58223;BME280;44020;50.890;15.796;2023-04-15T05:00:25;96327.90;;;7.65;100.00
58223;BME280;44020;50.890;15.796;2023-04-15T05:03:19;96332.98;;;7.65;100.00
58223;BME280;44020;50.890;15.796;2023-04-15T05:06:06;96338.23;;;7.66;100.00
58223;BME280;44020;50.890;15.796;2023-04-15T05:08:43;96339.05;;;7.67;100.00
58223;BME280;44020;50.890;15.796;2023-04-15T05:11:11;96342.67;;;7.68;100.00
58223;BME280;44020;50.890;15.796;2023-04-15T05:13:47;96350.84;;;7.68;100.00
58223;BME280;44020;50.890;15.796;2023-04-15T05:16:35;96353.58;;;7.67;100.00
58223;BME280;44020;50.890;15.796;2023-04-15T05:19:06;96354.77;;;7.67;99.96
58223;BME280;44020;50.890;15.796;2023-04-15T05:21:36;96359.73;;;7.67;99.84
58223;BME280;44020;50.890;15.796;2023-04-15T05:24:06;96359.98;;;7.66;99.70
58223;BME280;44020;50.890;15.796;2023-04-15T05:26:41;96364.02;;;7.64;99.49
58223;BME280;44020;50.890;15.796;2023-04-15T05:29:08;96368.31;;;7.61;99.45
58223;BME280;44020;50.890;15.796;2023-04-15T05:31:39;96364.77;;;7.59;99.12
58223;BME280;44020;50.890;15.796;2023-04-15T05:34:10;96360.80;;;7.58;98.86
58223;BME280;44020;50.890;15.796;2023-04-15T05:36:59;96360.09;;;7.58;98.86
58223;BME280;44020;50.890;15.796;2023-04-15T05:39:26;96361.45;;;7.57;98.50
58223;BME280;44020;50.890;15.796;2023-04-15T05:42:00;96362.44;;;7.55;98.30
58223;BME280;44020;50.890;15.796;2023-04-15T05:44:31;96370.34;;;7.56;98.53
58223;BME280;44020;50.890;15.796;2023-04-15T05:46:59;96368.61;;;7.56;98.30
58223;BME280;44020;50.890;15.796;2023-04-15T05:50:03;96372.92;;;7.57;98.19
58223;BME280;44020;50.890;15.796;2023-04-15T05:55:57;96383.91;;;7.54;97.53
58223;BME280;44020;50.890;15.796;2023-04-15T05:58:35;96386.01;;;7.54;97.52
58223;BME280;44020;50.890;15.796;2023-04-15T06:01:23;96387.46;;;7.57;97.44
58223;BME280;44020;50.890;15.796;2023-04-15T06:04:05;96389.70;;;7.59;97.29
58223;BME280;44020;50.890;15.796;2023-04-15T06:07:03;96394.62;;;7.62;97.22
58223;BME280;44020;50.890;15.796;2023-04-15T06:09:53;96394.54;;;7.63;96.83
58223;BME280;44020;50.890;15.796;2023-04-15T06:12:21;96394.77;;;7.64;96.96
58223;BME280;44020;50.890;15.796;2023-04-15T06:15:00;96392.73;;;7.66;96.51
58223;BME280;44020;50.890;15.796;2023-04-15T06:17:36;96394.31;;;7.68;96.29
58223;BME280;44020;50.890;15.796;2023-04-15T06:20:13;96395.56;;;7.70;96.00
58223;BME280;44020;50.890;15.796;2023-04-15T06:22:47;96397.70;;;7.72;95.82
58223;BME280;44020;50.890;15.796;2023-04-15T06:25:25;96396.43;;;7.73;95.68
58223;BME280;44020;50.890;15.796;2023-04-15T06:28:01;96398.24;;;7.74;95.38
58223;BME280;44020;50.890;15.796;2023-04-15T06:31:03;96399.27;;;7.75;94.94
58223;BME280;44020;50.890;15.796;2023-04-15T06:37:01;96414.77;;;7.80;94.69
58223;BME280;44020;50.890;15.796;2023-04-15T06:39:31;96416.57;;;7.84;94.30
58223;BME280;44020;50.890;15.796;2023-04-15T06:42:01;96415.89;;;7.86;93.99
58223;BME280;44020;50.890;15.796;2023-04-15T06:44:29;96419.76;;;7.86;93.63
58223;BME280;44020;50.890;15.796;2023-04-15T06:47:00;96424.16;;;7.86;93.36
58223;BME280;44020;50.890;15.796;2023-04-15T06:49:41;96425.96;;;7.86;93.33
58223;BME280;44020;50.890;15.796;2023-04-15T06:52:53;96421.73;;;7.85;93.07
58223;BME280;44020;50.890;15.796;2023-04-15T06:55:22;96416.14;;;7.85;92.77
58223;BME280;44020;50.890;15.796;2023-04-15T06:57:50;96419.48;;;7.85;92.50
58223;BME280;44020;50.890;15.796;2023-04-15T07:00:40;96426.71;;;7.85;92.17
58223;BME280;44020;50.890;15.796;2023-04-15T07:03:26;96427.41;;;7.87;92.26
58223;BME280;44020;50.890;15.796;2023-04-15T07:08:45;96431.99;;;7.97;91.84
58223;BME280;44020;50.890;15.796;2023-04-15T07:11:15;96439.49;;;8.00;91.71
58223;BME280;44020;50.890;15.796;2023-04-15T07:13:51;96447.82;;;8.04;91.55
58223;BME280;44020;50.890;15.796;2023-04-15T07:16:18;96448.41;;;8.05;90.84
58223;BME280;44020;50.890;15.796;2023-04-15T07:18:46;96447.18;;;8.05;90.58
58223;BME280;44020;50.890;15.796;2023-04-15T07:21:14;96443.59;;;8.04;90.40
58223;BME280;44020;50.890;15.796;2023-04-15T07:24:03;96448.80;;;8.07;90.59
58223;BME280;44020;50.890;15.796;2023-04-15T07:29:24;96451.48;;;8.16;90.13
58223;BME280;44020;50.890;15.796;2023-04-15T07:32:40;96449.14;;;8.25;90.17
58223;BME280;44020;50.890;15.796;2023-04-15T07:35:11;96453.09;;;8.36;89.89
58223;BME280;44020;50.890;15.796;2023-04-15T07:37:55;96458.86;;;8.43;89.70
58223;BME280;44020;50.890;15.796;2023-04-15T07:43:12;96460.20;;;8.55;88.91
58223;BME280;44020;50.890;15.796;2023-04-15T07:45:40;96462.92;;;8.61;88.50
58223;BME280;44020;50.890;15.796;2023-04-15T07:48:20;96462.42;;;8.67;88.38
58223;BME280;44020;50.890;15.796;2023-04-15T07:50:47;96460.77;;;8.76;88.44
58223;BME280;44020;50.890;15.796;2023-04-15T07:53:23;96465.36;;;8.85;88.32
58223;BME280;44020;50.890;15.796;2023-04-15T07:55:52;96464.11;;;8.89;88.15
58223;BME280;44020;50.890;15.796;2023-04-15T07:58:20;96461.96;;;8.91;87.91
58223;BME280;44020;50.890;15.796;2023-04-15T08:00:53;96461.97;;;8.95;87.61
58223;BME280;44020;50.890;15.796;2023-04-15T08:03:21;96468.70;;;9.00;87.25
58223;BME280;44020;50.890;15.796;2023-04-15T08:05:49;96474.89;;;9.02;86.98
58223;BME280;44020;50.890;15.796;2023-04-15T08:08:17;96477.60;;;9.04;86.64
58223;BME280;44020;50.890;15.796;2023-04-15T08:10:44;96476.84;;;9.04;86.26
58223;BME280;44020;50.890;15.796;2023-04-15T08:13:16;96480.23;;;9.04;85.77
58223;BME280;44020;50.890;15.796;2023-04-15T08:15:44;96483.10;;;9.04;85.41
58223;BME280;44020;50.890;15.796;2023-04-15T08:18:31;96486.29;;;9.06;85.37
58223;BME280;44020;50.890;15.796;2023-04-15T08:21:02;96489.58;;;9.07;85.06
58223;BME280;44020;50.890;15.796;2023-04-15T08:23:31;96491.61;;;9.08;84.48
58223;BME280;44020;50.890;15.796;2023-04-15T08:26:11;96493.29;;;9.09;84.00
58223;BME280;44020;50.890;15.796;2023-04-15T08:28:47;96493.23;;;9.09;83.88
58223;BME280;44020;50.890;15.796;2023-04-15T08:31:16;96488.98;;;9.16;83.98
58223;BME280;44020;50.890;15.796;2023-04-15T08:33:45;96491.59;;;9.25;83.71
58223;BME280;44020;50.890;15.796;2023-04-15T08:36:21;96493.80;;;9.34;83.95
58223;BME280;44020;50.890;15.796;2023-04-15T08:38:52;96503.26;;;9.46;83.93
58223;BME280;44020;50.890;15.796;2023-04-15T08:41:21;96505.25;;;9.52;83.58
58223;BME280;44020;50.890;15.796;2023-04-15T08:44:06;96506.90;;;9.55;83.06
58223;BME280;44020;50.890;15.796;2023-04-15T08:46:41;96507.48;;;9.59;82.78
58223;BME280;44020;50.890;15.796;2023-04-15T08:49:12;96505.08;;;9.62;82.33
58223;BME280;44020;50.890;15.796;2023-04-15T08:51:40;96510.73;;;9.65;81.95
58223;BME280;44020;50.890;15.796;2023-04-15T08:56:55;96516.73;;;9.65;81.28
58223;BME280;44020;50.890;15.796;2023-04-15T08:59:24;96519.71;;;9.65;81.24
58223;BME280;44020;50.890;15.796;2023-04-15T09:02:18;96522.30;;;9.66;80.46
58223;BME280;44020;50.890;15.796;2023-04-15T09:04:46;96525.71;;;9.66;80.20
58223;BME280;44020;50.890;15.796;2023-04-15T09:07:14;96529.85;;;9.63;79.81
58223;BME280;44020;50.890;15.796;2023-04-15T09:09:42;96524.01;;;9.65;79.85
58223;BME280;44020;50.890;15.796;2023-04-15T09:12:13;96522.98;;;9.72;80.01
58223;BME280;44020;50.890;15.796;2023-04-15T09:17:44;96528.88;;;9.99;79.55
58223;BME280;44020;50.890;15.796;2023-04-15T09:20:13;96532.91;;;10.05;79.53
58223;BME280;44020;50.890;15.796;2023-04-15T09:22:45;96534.59;;;10.11;79.27
58223;BME280;44020;50.890;15.796;2023-04-15T09:28:01;96538.04;;;10.26;79.07
58223;BME280;44020;50.890;15.796;2023-04-15T09:30:29;96539.30;;;10.32;78.93
58223;BME280;44020;50.890;15.796;2023-04-15T09:32:58;96538.12;;;10.42;78.35
58223;BME280;44020;50.890;15.796;2023-04-15T09:35:27;96540.47;;;10.48;78.21
58223;BME280;44020;50.890;15.796;2023-04-15T09:38:05;96538.67;;;10.51;77.83
58223;BME280;44020;50.890;15.796;2023-04-15T09:40:35;96543.44;;;10.58;77.34
58223;BME280;44020;50.890;15.796;2023-04-15T09:43:04;96544.06;;;10.60;77.09
58223;BME280;44020;50.890;15.796;2023-04-15T09:45:33;96547.64;;;10.65;76.93
58223;BME280;44020;50.890;15.796;2023-04-15T09:50:43;96551.61;;;10.72;76.11
58223;BME280;44020;50.890;15.796;2023-04-15T09:53:14;96552.52;;;10.72;75.98
58223;BME280;44020;50.890;15.796;2023-04-15T09:55:58;96556.11;;;10.77;76.06
58223;BME280;44020;50.890;15.796;2023-04-15T09:58:29;96560.10;;;10.86;75.73
58223;BME280;44020;50.890;15.796;2023-04-15T10:00:58;96556.83;;;10.95;75.14
58223;BME280;44020;50.890;15.796;2023-04-15T10:03:30;96555.52;;;11.01;75.06
58223;BME280;44020;50.890;15.796;2023-04-15T10:05:59;96551.90;;;11.06;74.37
58223;BME280;44020;50.890;15.796;2023-04-15T10:08:30;96550.20;;;11.11;74.37
58223;BME280;44020;50.890;15.796;2023-04-15T10:11:00;96552.14;;;11.21;74.27
58223;BME280;44020;50.890;15.796;2023-04-15T10:13:30;96554.06;;;11.31;74.46
58223;BME280;44020;50.890;15.796;2023-04-15T10:16:10;96557.66;;;11.42;74.26
58223;BME280;44020;50.890;15.796;2023-04-15T10:18:52;96558.52;;;11.52;73.98
58223;BME280;44020;50.890;15.796;2023-04-15T10:21:23;96561.88;;;11.60;73.57
58223;BME280;44020;50.890;15.796;2023-04-15T10:23:59;96563.64;;;11.66;73.32
58223;BME280;44020;50.890;15.796;2023-04-15T10:26:42;96565.60;;;11.68;72.70
58223;BME280;44020;50.890;15.796;2023-04-15T10:29:11;96563.05;;;11.69;72.52
58223;BME280;44020;50.890;15.796;2023-04-15T10:31:39;96563.65;;;11.74;72.43
58223;BME280;44020;50.890;15.796;2023-04-15T10:34:10;96562.21;;;11.82;72.04
58223;BME280;44020;50.890;15.796;2023-04-15T10:36:38;96563.79;;;11.94;72.03
58223;BME280;44020;50.890;15.796;2023-04-15T10:39:46;96565.77;;;12.04;71.57
58223;BME280;44020;50.890;15.796;2023-04-15T10:42:16;96567.70;;;12.18;71.82
58223;BME280;44020;50.890;15.796;2023-04-15T10:44:50;96572.27;;;12.26;71.64
58223;BME280;44020;50.890;15.796;2023-04-15T10:47:22;96570.27;;;12.34;70.90
58223;BME280;44020;50.890;15.796;2023-04-15T10:49:57;96577.52;;;12.40;70.72
58223;BME280;44020;50.890;15.796;2023-04-15T10:52:27;96577.69;;;12.48;70.50
58223;BME280;44020;50.890;15.796;2023-04-15T10:55:21;96576.48;;;12.53;70.29
58223;BME280;44020;50.890;15.796;2023-04-15T10:57:53;96580.95;;;12.60;69.93
58223;BME280;44020;50.890;15.796;2023-04-15T11:00:26;96584.35;;;12.65;69.67
58223;BME280;44020;50.890;15.796;2023-04-15T11:02:56;96584.65;;;12.70;69.65
58223;BME280;44020;50.890;15.796;2023-04-15T11:05:52;96587.65;;;12.68;68.93
58223;BME280;44020;50.890;15.796;2023-04-15T11:08:58;96589.48;;;12.67;68.33
58223;BME280;44020;50.890;15.796;2023-04-15T11:12:07;96589.61;;;12.68;68.54
58223;BME280;44020;50.890;15.796;2023-04-15T11:14:41;96594.17;;;12.77;68.57
58223;BME280;44020;50.890;15.796;2023-04-15T11:17:09;96594.07;;;12.85;68.20
58223;BME280;44020;50.890;15.796;2023-04-15T11:19:37;96598.68;;;12.91;68.04
58223;BME280;44020;50.890;15.796;2023-04-15T11:22:08;96598.95;;;12.94;67.74
58223;BME280;44020;50.890;15.796;2023-04-15T11:24:46;96605.20;;;12.97;67.56
58223;BME280;44020;50.890;15.796;2023-04-15T11:27:22;96606.14;;;13.00;67.29
58223;BME280;44020;50.890;15.796;2023-04-15T11:29:49;96602.58;;;13.06;67.38
58223;BME280;44020;50.890;15.796;2023-04-15T11:32:17;96602.90;;;13.09;66.55
58223;BME280;44020;50.890;15.796;2023-04-15T11:34:45;96601.27;;;13.13;66.65
58223;BME280;44020;50.890;15.796;2023-04-15T11:37:15;96608.16;;;13.23;66.51
58223;BME280;44020;50.890;15.796;2023-04-15T11:39:43;96608.42;;;13.28;66.24
58223;BME280;44020;50.890;15.796;2023-04-15T11:42:20;96611.99;;;13.31;65.70
58223;BME280;44020;50.890;15.796;2023-04-15T11:45:12;96615.80;;;13.40;65.08
58223;BME280;44020;50.890;15.796;2023-04-15T11:47:41;96623.98;;;13.49;64.51
58223;BME280;44020;50.890;15.796;2023-04-15T11:50:20;96626.59;;;13.57;63.58
58223;BME280;44020;50.890;15.796;2023-04-15T11:52:59;96628.98;;;13.62;63.09
58223;BME280;44020;50.890;15.796;2023-04-15T11:55:30;96628.88;;;13.66;61.48
58223;BME280;44020;50.890;15.796;2023-04-15T11:58:24;96628.92;;;13.75;61.89
58223;BME280;44020;50.890;15.796;2023-04-15T12:00:53;96631.48;;;13.85;61.80
58223;BME280;44020;50.890;15.796;2023-04-15T12:03:23;96627.66;;;13.92;61.15
58223;BME280;44020;50.890;15.796;2023-04-15T12:06:11;96632.02;;;13.99;60.94
58223;BME280;44020;50.890;15.796;2023-04-15T12:08:59;96636.98;;;14.10;60.28
58223;BME280;44020;50.890;15.796;2023-04-15T12:16:27;96645.72;;;14.40;59.36
58223;BME280;44020;50.890;15.796;2023-04-15T12:18:56;96650.52;;;14.53;59.36
58223;BME280;44020;50.890;15.796;2023-04-15T12:21:27;96647.59;;;14.62;58.93
58223;BME280;44020;50.890;15.796;2023-04-15T12:24:02;96648.90;;;14.75;58.88
58223;BME280;44020;50.890;15.796;2023-04-15T12:26:34;96654.05;;;14.88;58.09
58223;BME280;44020;50.890;15.796;2023-04-15T12:29:06;96658.55;;;14.94;57.37
58223;BME280;44020;50.890;15.796;2023-04-15T12:31:34;96664.73;;;14.98;57.09
58223;BME280;44020;50.890;15.796;2023-04-15T12:34:07;96659.65;;;15.01;56.62
58223;BME280;44020;50.890;15.796;2023-04-15T12:36:35;96662.85;;;15.03;56.21
58223;BME280;44020;50.890;15.796;2023-04-15T12:39:05;96664.38;;;15.08;56.23
58223;BME280;44020;50.890;15.796;2023-04-15T12:41:36;96665.63;;;15.12;55.73
58223;BME280;44020;50.890;15.796;2023-04-15T12:44:06;96671.91;;;15.12;55.62
58223;BME280;44020;50.890;15.796;2023-04-15T12:46:34;96671.13;;;15.19;55.59
58223;BME280;44020;50.890;15.796;2023-04-15T12:49:02;96673.00;;;15.25;54.79
58223;BME280;44020;50.890;15.796;2023-04-15T12:51:30;96677.30;;;15.32;54.69
58223;BME280;44020;50.890;15.796;2023-04-15T12:53:58;96678.45;;;15.41;54.26
58223;BME280;44020;50.890;15.796;2023-04-15T12:56:25;96675.76;;;15.48;53.95
58223;BME280;44020;50.890;15.796;2023-04-15T12:58:53;96679.80;;;15.53;53.81
58223;BME280;44020;50.890;15.796;2023-04-15T13:01:23;96687.80;;;15.59;54.08
58223;BME280;44020;50.890;15.796;2023-04-15T13:03:51;96688.60;;;15.69;54.26
58223;BME280;44020;50.890;15.796;2023-04-15T13:06:19;96692.89;;;15.74;53.66
58223;BME280;44020;50.890;15.796;2023-04-15T13:08:47;96691.16;;;15.80;53.39
58223;BME280;44020;50.890;15.796;2023-04-15T13:11:22;96696.07;;;15.88;52.93
58223;BME280;44020;50.890;15.796;2023-04-15T13:13:50;96704.11;;;15.93;52.66
58223;BME280;44020;50.890;15.796;2023-04-15T13:16:20;96705.90;;;16.04;52.39
58223;BME280;44020;50.890;15.796;2023-04-15T13:18:48;96705.77;;;16.17;52.34
58223;BME280;44020;50.890;15.796;2023-04-15T13:21:15;96698.59;;;16.27;52.05
58223;BME280;44020;50.890;15.796;2023-04-15T13:23:52;96698.47;;;16.25;51.77
58223;BME280;44020;50.890;15.796;2023-04-15T13:26:31;96708.06;;;16.19;50.54
58223;BME280;44020;50.890;15.796;2023-04-15T13:29:03;96706.67;;;16.07;50.82
58223;BME280;44020;50.890;15.796;2023-04-15T13:31:31;96706.05;;;15.99;50.83
58223;BME280;44020;50.890;15.796;2023-04-15T13:34:02;96710.69;;;15.98;50.78
58223;BME280;44020;50.890;15.796;2023-04-15T13:36:32;96708.81;;;15.94;50.83
58223;BME280;44020;50.890;15.796;2023-04-15T13:38:59;96710.67;;;15.87;50.65
58223;BME280;44020;50.890;15.796;2023-04-15T13:41:26;96713.55;;;15.77;50.36
58223;BME280;44020;50.890;15.796;2023-04-15T13:43:54;96715.02;;;15.68;50.55
58223;BME280;44020;50.890;15.796;2023-04-15T13:46:21;96720.90;;;15.63;50.58
58223;BME280;44020;50.890;15.796;2023-04-15T13:48:55;96724.88;;;15.57;50.73
58223;BME280;44020;50.890;15.796;2023-04-15T13:51:22;96724.55;;;15.50;50.59
58223;BME280;44020;50.890;15.796;2023-04-15T13:53:49;96729.44;;;15.43;50.31
58223;BME280;44020;50.890;15.796;2023-04-15T13:56:17;96732.52;;;15.27;50.04
58223;BME280;44020;50.890;15.796;2023-04-15T13:58:44;96728.96;;;15.10;50.03
58223;BME280;44020;50.890;15.796;2023-04-15T14:01:12;96733.75;;;15.02;50.25
58223;BME280;44020;50.890;15.796;2023-04-15T14:03:48;96734.75;;;14.94;50.20
58223;BME280;44020;50.890;15.796;2023-04-15T14:06:36;96737.76;;;14.82;49.61
58223;BME280;44020;50.890;15.796;2023-04-15T14:09:06;96738.59;;;14.65;49.67
58223;BME280;44020;50.890;15.796;2023-04-15T14:11:54;96742.64;;;14.53;49.88
58223;BME280;44020;50.890;15.796;2023-04-15T14:14:22;96746.49;;;14.46;49.90
58223;BME280;44020;50.890;15.796;2023-04-15T14:16:50;96753.75;;;14.39;50.13
58223;BME280;44020;50.890;15.796;2023-04-15T14:19:18;96753.88;;;14.31;49.93
58223;BME280;44020;50.890;15.796;2023-04-15T14:21:45;96759.31;;;14.24;50.22
58223;BME280;44020;50.890;15.796;2023-04-15T14:24:16;96764.16;;;14.19;50.29
58223;BME280;44020;50.890;15.796;2023-04-15T14:26:43;96767.11;;;14.16;50.26
58223;BME280;44020;50.890;15.796;2023-04-15T14:29:10;96770.85;;;14.11;50.06
58223;BME280;44020;50.890;15.796;2023-04-15T14:31:56;96772.48;;;14.05;50.15
58223;BME280;44020;50.890;15.796;2023-04-15T14:34:25;96774.44;;;14.06;50.37
58223;BME280;44020;50.890;15.796;2023-04-15T14:36:53;96774.39;;;14.04;50.42
58223;BME280;44020;50.890;15.796;2023-04-15T14:39:20;96776.20;;;14.00;50.16
58223;BME280;44020;50.890;15.796;2023-04-15T14:45:06;96779.38;;;13.90;49.89
58223;BME280;44020;50.890;15.796;2023-04-15T14:47:35;96782.65;;;13.89;49.83
58223;BME280;44020;50.890;15.796;2023-04-15T14:50:03;96783.73;;;13.90;49.68
58223;BME280;44020;50.890;15.796;2023-04-15T14:52:34;96787.93;;;13.91;49.80
58223;BME280;44020;50.890;15.796;2023-04-15T14:55:07;96788.80;;;13.92;49.71
58223;BME280;44020;50.890;15.796;2023-04-15T14:57:39;96795.06;;;13.94;49.72
58223;BME280;44020;50.890;15.796;2023-04-15T15:00:11;96797.84;;;13.92;49.65
58223;BME280;44020;50.890;15.796;2023-04-15T15:03:10;96800.91;;;13.89;49.73
58223;BME280;44020;50.890;15.796;2023-04-15T15:05:56;96807.17;;;13.76;50.80
58223;BME280;44020;50.890;15.796;2023-04-15T15:08:27;96814.02;;;13.58;52.49
58223;BME280;44020;50.890;15.796;2023-04-15T15:11:05;96819.48;;;13.44;53.96
58223;BME280;44020;50.890;15.796;2023-04-15T15:13:38;96815.34;;;13.20;55.39
58223;BME280;44020;50.890;15.796;2023-04-15T15:16:09;96811.70;;;12.98;56.42
58223;BME280;44020;50.890;15.796;2023-04-15T15:18:36;96808.90;;;12.79;57.33
58223;BME280;44020;50.890;15.796;2023-04-15T15:21:04;96811.22;;;12.63;58.23
58223;BME280;44020;50.890;15.796;2023-04-15T15:23:32;96816.20;;;12.50;58.73
58223;BME280;44020;50.890;15.796;2023-04-15T15:25:59;96823.59;;;12.51;59.20
58223;BME280;44020;50.890;15.796;2023-04-15T15:28:47;96818.72;;;12.58;59.50
58223;BME280;44020;50.890;15.796;2023-04-15T15:31:37;96819.67;;;12.57;59.84
58223;BME280;44020;50.890;15.796;2023-04-15T15:34:49;96821.64;;;12.61;60.29
58223;BME280;44020;50.890;15.796;2023-04-15T15:37:15;96822.72;;;12.53;60.20
58223;BME280;44020;50.890;15.796;2023-04-15T15:39:42;96828.47;;;12.45;60.60
58223;BME280;44020;50.890;15.796;2023-04-15T15:42:10;96827.45;;;12.35;60.67
58223;BME280;44020;50.890;15.796;2023-04-15T15:44:38;96831.69;;;12.23;60.89
58223;BME280;44020;50.890;15.796;2023-04-15T15:47:06;96832.89;;;12.10;61.06
58223;BME280;44020;50.890;15.796;2023-04-15T15:49:33;96836.63;;;12.00;61.31
58223;BME280;44020;50.890;15.796;2023-04-15T15:52:00;96838.98;;;11.92;61.58
58223;BME280;44020;50.890;15.796;2023-04-15T15:54:28;96845.36;;;11.83;61.77
58223;BME280;44020;50.890;15.796;2023-04-15T15:56:55;96850.48;;;11.72;62.05
58223;BME280;44020;50.890;15.796;2023-04-15T15:59:23;96854.38;;;11.64;62.26
58223;BME280;44020;50.890;15.796;2023-04-15T16:01:51;96856.26;;;11.57;62.33
58223;BME280;44020;50.890;15.796;2023-04-15T16:04:22;96860.70;;;11.49;62.45
58223;BME280;44020;50.890;15.796;2023-04-15T16:06:50;96868.83;;;11.45;62.56
58223;BME280;44020;50.890;15.796;2023-04-15T16:09:20;96869.99;;;11.44;62.67
58223;BME280;44020;50.890;15.796;2023-04-15T16:11:48;96869.26;;;11.42;63.05
58223;BME280;44020;50.890;15.796;2023-04-15T16:14:19;96868.96;;;11.42;63.11
58223;BME280;44020;50.890;15.796;2023-04-15T16:16:47;96873.17;;;11.38;63.28
58223;BME280;44020;50.890;15.796;2023-04-15T16:19:14;96873.65;;;11.33;63.54
58223;BME280;44020;50.890;15.796;2023-04-15T16:21:42;96874.53;;;11.31;63.73
58223;BME280;44020;50.890;15.796;2023-04-15T16:24:10;96877.16;;;11.31;63.60
58223;BME280;44020;50.890;15.796;2023-04-15T16:26:47;96882.27;;;11.32;63.60
58223;BME280;44020;50.890;15.796;2023-04-15T16:32:22;96895.54;;;11.35;63.77
58223;BME280;44020;50.890;15.796;2023-04-15T16:34:51;96899.16;;;11.34;63.82
58223;BME280;44020;50.890;15.796;2023-04-15T16:37:31;96904.18;;;11.33;63.82
58223;BME280;44020;50.890;15.796;2023-04-15T16:40:02;96903.52;;;11.35;63.67
58223;BME280;44020;50.890;15.796;2023-04-15T16:42:40;96903.20;;;11.39;63.66
58223;BME280;44020;50.890;15.796;2023-04-15T16:45:09;96907.23;;;11.46;63.60
58223;BME280;44020;50.890;15.796;2023-04-15T16:47:37;96907.41;;;11.58;63.46
58223;BME280;44020;50.890;15.796;2023-04-15T16:50:05;96912.57;;;11.94;63.55